Terminal Aerodrome Forecast
Issued by NWS

Home | Current Version | Previous Version | Text Only | Print | Product List | Glossary On
Versions: 1 2 3 4 5 6 7 8 9 10 11 12 13 14
000
FTAK31 PANC 070524
TAFAEN
TAF
PAEN 070524Z 0706/0806 04006KT P6SM FEW050
     FM071200 04012KT P6SM FEW030 SCT050
     FM071800 02015G22KT P6SM BKN050=

USA.gov is the U.S. government's official web portal to all federal, state and local government web resources and services.